Time,TemperatureF,DewpointF,PressureIn,WindDirection,WindDirectionDegrees,WindSpeedMPH,WindSpeedGustMPH,Humidity,HourlyPrecipIn,Conditions,Clouds,dailyrainin,SoftwareType,DateUTC
2013-10-09 00:22:00,64.0,50.0,29.99,South,171,2.0,-999.0,60,0.00,,,0.00,,2013-10-09 05:22:00,
2013-10-09 00:52:00,64.0,51.0,29.98,South,171,0.0,-999.0,63,0.00,,,0.00,,2013-10-09 05:52:00,
2013-10-09 01:22:00,62.0,52.0,29.98,South,171,1.0,-999.0,69,0.00,,,0.00,,2013-10-09 06:22:00,
2013-10-09 01:42:00,63.0,52.0,29.98,SW,220,3.0,-999.0,68,0.00,,,0.00,,2013-10-09 06:42:00,
2013-10-09 01:52:00,63.0,53.0,29.98,SW,224,2.0,-999.0,69,0.00,,,0.00,,2013-10-09 06:52:00,
2013-10-09 02:22:00,62.0,53.0,29.98,SW,224,2.0,-999.0,72,0.00,,,0.00,,2013-10-09 07:22:00,
2013-10-09 02:42:00,62.0,53.0,29.98,SW,224,2.0,-999.0,73,0.00,,,0.00,,2013-10-09 07:42:00,
2013-10-09 02:52:00,62.0,54.0,29.98,SW,225,3.0,-999.0,74,0.00,,,0.00,,2013-10-09 07:52:00,
2013-10-09 03:23:00,61.0,54.0,29.98,SW,225,2.0,-999.0,77,0.00,,,0.00,,2013-10-09 08:23:00,
2013-10-09 03:42:00,61.0,54.0,29.98,SW,225,2.0,-999.0,79,0.00,,,0.00,,2013-10-09 08:42:00,
2013-10-09 03:53:00,61.0,55.0,29.97,SW,225,2.0,-999.0,80,0.00,,,0.00,,2013-10-09 08:53:00,
2013-10-09 04:22:00,61.0,55.0,29.97,SW,225,2.0,-999.0,82,0.00,,,0.00,,2013-10-09 09:22:00,
2013-10-09 04:43:00,61.0,56.0,29.98,SW,226,3.0,-999.0,83,0.00,,,0.00,,2013-10-09 09:43:00,
2013-10-09 04:53:00,61.0,56.0,29.97,SW,226,2.0,-999.0,83,0.00,,,0.00,,2013-10-09 09:53:00,
2013-10-09 05:13:00,61.0,56.0,29.98,SW,226,1.0,-999.0,83,0.00,,,0.00,,2013-10-09 10:13:00,
2013-10-09 05:23:00,60.0,55.0,29.98,SW,226,0.0,-999.0,84,0.00,,,0.00,,2013-10-09 10:23:00,
2013-10-09 05:43:00,57.0,53.0,29.98,SW,227,0.0,-999.0,86,0.00,,,0.00,,2013-10-09 10:43:00,
2013-10-09 05:53:00,57.0,53.0,29.98,SW,226,0.0,-999.0,88,0.00,,,0.00,,2013-10-09 10:53:00,
2013-10-09 06:22:00,55.0,52.0,29.99,SW,227,2.0,-999.0,91,0.00,,,0.00,,2013-10-09 11:22:00,
2013-10-09 06:52:00,55.0,52.0,29.99,WSW,258,3.0,-999.0,91,0.00,,,0.00,,2013-10-09 11:52:00,
2013-10-09 07:12:00,55.0,52.0,29.99,WSW,258,3.0,-999.0,91,0.00,,,0.00,,2013-10-09 12:12:00,
2013-10-09 07:21:00,55.0,53.0,30.00,WNW,288,2.0,-999.0,92,0.00,,,0.00,,2013-10-09 12:21:00,
2013-10-09 07:42:00,54.0,52.0,30.00,WNW,288,3.0,-999.0,92,0.00,,,0.00,,2013-10-09 12:42:00,
2013-10-09 07:52:00,54.0,52.0,30.00,WNW,288,3.0,-999.0,92,0.00,,,0.00,,2013-10-09 12:52:00,
2013-10-09 08:11:00,55.0,53.0,30.01,WNW,295,3.0,-999.0,93,0.00,,,0.00,,2013-10-09 13:11:00,
2013-10-09 08:22:00,55.0,53.0,30.01,WNW,295,2.0,-999.0,92,0.00,,,0.00,,2013-10-09 13:22:00,
2013-10-09 08:42:00,57.0,55.0,30.01,WNW,296,2.0,-999.0,92,0.00,,,0.00,,2013-10-09 13:42:00,
2013-10-09 08:52:00,58.0,56.0,30.01,NW,317,1.0,-999.0,92,0.00,,,0.00,,2013-10-09 13:52:00,
2013-10-09 09:11:00,60.0,57.0,30.02,NNW,332,2.0,-999.0,90,0.00,,,0.00,,2013-10-09 14:11:00,
2013-10-09 09:22:00,61.0,58.0,30.03,North,360,3.0,-999.0,89,0.00,,,0.00,,2013-10-09 14:22:00,
2013-10-09 09:42:00,63.0,59.0,30.03,North,360,4.0,-999.0,87,0.00,,,0.00,,2013-10-09 14:42:00,
2013-10-09 09:52:00,66.0,61.0,30.03,North,5,1.0,-999.0,84,0.00,,,0.00,,2013-10-09 14:52:00,
2013-10-09 10:22:00,68.0,61.0,30.04,NNE,29,2.0,-999.0,78,0.00,,,0.00,,2013-10-09 15:22:00,
2013-10-09 10:53:00,71.0,61.0,30.04,East,84,0.0,-999.0,71,0.00,,,0.00,,2013-10-09 15:53:00,
2013-10-09 11:24:00,74.0,64.0,30.04,SE,134,3.0,-999.0,70,0.00,,,0.00,,2013-10-09 16:24:00,
2013-10-09 11:42:00,75.0,64.0,30.04,South,179,5.0,-999.0,69,0.00,,,0.00,,2013-10-09 16:42:00,
2013-10-09 11:53:00,75.0,63.0,30.03,South,187,6.0,-999.0,67,0.00,,,0.00,,2013-10-09 16:53:00,
2013-10-09 12:22:00,76.0,63.0,30.03,SSE,148,6.0,-999.0,64,0.00,,,0.00,,2013-10-09 17:22:00,
2013-10-09 12:42:00,77.0,63.0,30.03,South,185,8.0,-999.0,61,0.00,,,0.00,,2013-10-09 17:42:00,
2013-10-09 12:52:00,78.0,62.0,30.03,SW,221,5.0,-999.0,59,0.00,,,0.00,,2013-10-09 17:52:00,
2013-10-09 13:12:00,79.0,62.0,30.02,SSE,160,10.0,-999.0,56,0.00,,,0.00,,2013-10-09 18:12:00,
2013-10-09 13:22:00,79.0,60.0,30.01,SSE,148,8.0,-999.0,53,0.00,,,0.00,,2013-10-09 18:22:00,
2013-10-09 13:42:00,79.0,60.0,30.01,SE,140,6.0,-999.0,53,0.00,,,0.00,,2013-10-09 18:42:00,
2013-10-09 13:52:00,79.0,61.0,30.01,SSE,148,4.0,-999.0,55,0.00,,,0.00,,2013-10-09 18:52:00,
2013-10-09 14:11:00,80.0,61.0,30.00,SSE,153,9.0,-999.0,52,0.00,,,0.00,,2013-10-09 19:11:00,
2013-10-09 14:22:00,80.0,60.0,29.98,South,182,6.0,-999.0,51,0.00,,,0.00,,2013-10-09 19:22:00,
2013-10-09 14:42:00,80.0,60.0,29.98,ENE,78,1.0,-999.0,50,0.00,,,0.00,,2013-10-09 19:42:00,
2013-10-09 14:53:00,81.0,61.0,29.97,SSE,147,7.0,-999.0,50,0.00,,,0.00,,2013-10-09 19:53:00,
2013-10-09 15:22:00,81.0,61.0,29.96,ESE,111,4.0,-999.0,50,0.00,,,0.00,,2013-10-09 20:22:00,
2013-10-09 15:43:00,82.0,61.0,29.96,SE,127,3.0,-999.0,49,0.00,,,0.00,,2013-10-09 20:43:00,
2013-10-09 15:52:00,82.0,61.0,29.95,SE,134,9.0,-999.0,49,0.00,,,0.00,,2013-10-09 20:52:00,
2013-10-09 16:22:00,82.0,60.0,29.94,SSE,150,5.0,-999.0,47,0.00,,,0.00,,2013-10-09 21:22:00,
2013-10-09 16:44:00,83.0,60.0,29.94,SE,142,6.0,-999.0,46,0.00,,,0.00,,2013-10-09 21:44:00,
2013-10-09 16:54:00,83.0,60.0,29.93,SSE,165,2.0,-999.0,46,0.00,,,0.00,,2013-10-09 21:54:00,
2013-10-09 17:24:00,83.0,60.0,29.93,SE,136,7.0,-999.0,46,0.00,,,0.00,,2013-10-09 22:24:00,
2013-10-09 17:43:00,83.0,61.0,29.92,South,171,4.0,-999.0,48,0.00,,,0.00,,2013-10-09 22:43:00,
2013-10-09 17:53:00,83.0,61.0,29.92,SSE,147,6.0,-999.0,47,0.00,,,0.00,,2013-10-09 22:53:00,
2013-10-09 18:22:00,83.0,61.0,29.92,ESE,123,7.0,-999.0,47,0.00,,,0.00,,2013-10-09 23:22:00,
2013-10-09 18:53:00,82.0,61.0,29.92,ESE,105,1.0,-999.0,50,0.00,,,0.00,,2013-10-09 23:53:00,
2013-10-09 19:12:00,81.0,61.0,29.92,ESE,117,5.0,-999.0,50,0.00,,,0.00,,2013-10-10 00:12:00,
2013-10-09 19:22:00,80.0,61.0,29.92,ESE,106,2.0,-999.0,53,0.00,,,0.00,,2013-10-10 00:22:00,
2013-10-09 19:42:00,78.0,62.0,29.92,ESE,106,2.0,-999.0,57,0.00,,,0.00,,2013-10-10 00:42:00,
2013-10-09 19:52:00,77.0,62.0,29.92,ESE,106,1.0,-999.0,59,0.00,,,0.00,,2013-10-10 00:52:00,
2013-10-09 20:11:00,75.0,61.0,29.92,ESE,106,1.0,-999.0,62,0.00,,,0.00,,2013-10-10 01:11:00,
2013-10-09 20:21:00,74.0,61.0,29.93,ESE,106,1.0,-999.0,63,0.00,,,0.00,,2013-10-10 01:21:00,
2013-10-09 20:42:00,74.0,61.0,29.93,ESE,106,1.0,-999.0,64,0.00,,,0.00,,2013-10-10 01:42:00,
2013-10-09 20:52:00,73.0,61.0,29.93,ESE,106,0.0,-999.0,66,0.00,,,0.00,,2013-10-10 01:52:00,
2013-10-09 21:12:00,73.0,61.0,29.94,ESE,106,0.0,-999.0,66,0.00,,,0.00,,2013-10-10 02:12:00,
2013-10-09 21:22:00,72.0,61.0,29.95,ESE,106,1.0,-999.0,68,0.00,,,0.00,,2013-10-10 02:22:00,
2013-10-09 22:22:00,72.0,63.0,29.97,SE,125,5.0,-999.0,73,0.00,,,0.00,,2013-10-10 03:22:00,
2013-10-09 22:44:00,71.0,62.0,29.97,SSE,148,4.0,-999.0,73,0.00,,,0.00,,2013-10-10 03:44:00,
2013-10-09 22:55:00,71.0,63.0,29.98,ESE,123,5.0,-999.0,75,0.00,,,0.00,,2013-10-10 03:55:00,
2013-10-09 23:24:00,70.0,63.0,29.98,SE,132,4.0,-999.0,78,0.00,,,0.00,,2013-10-10 04:24:00,
2013-10-09 23:47:00,70.0,63.0,29.99,SSE,154,7.0,-999.0,79,0.00,,,0.00,,2013-10-10 04:47:00,
2013-10-09 23:54:00,70.0,63.0,29.98,SSE,150,3.0,-999.0,79,0.00,,,0.00,,2013-10-10 04:54:00,